Time;durP1;ratioP1;P1;durP2;ratioP2;P2;SDS_P1;SDS_P2;PMS_P1;PMS_P2;Temp;Humidity;BMP_temperature;BMP_pressure;BME280_temperature;BME280_humidity;BME280_pressure;Samples;Min_cycle;Max_cycle;Signal;HPM_P1;HPM_P2
2022/12/02 00:00:59;;;;;;;33.77;17.73;;;4.20;99.90;;;;;;4994664;28;20450;-71
2022/12/02 00:03:25;;;;;;;37.87;19.73;;;4.20;99.90;;;;;;5012029;28;20923;-71
2022/12/02 00:05:54;;;;;;;37.23;18.60;;;4.20;99.90;;;;;;5012299;28;20418;-71
2022/12/02 00:08:31;;;;;;;44.67;19.37;;;4.20;99.90;;;;;;5012307;28;20202;-71
2022/12/02 00:10:59;;;;;;;33.27;17.90;;;4.20;99.90;;;;;;5012236;28;20459;-71
2022/12/02 00:13:26;;;;;;;35.80;18.50;;;4.30;99.90;;;;;;5011892;28;20417;-72
2022/12/02 00:16:01;;;;;;;34.10;18.23;;;4.20;99.90;;;;;;5012147;28;20466;-71
2022/12/02 00:18:27;;;;;;;32.93;20.00;;;4.20;99.90;;;;;;5012014;28;20408;-71
2022/12/02 00:20:53;;;;;;;38.63;20.17;;;4.20;99.90;;;;;;5011961;28;20987;-71
2022/12/02 00:23:19;;;;;;;39.07;17.43;;;4.20;99.90;;;;;;5011768;28;20402;-72
2022/12/02 00:25:47;;;;;;;36.23;19.10;;;4.20;99.90;;;;;;5011932;28;20408;-72
2022/12/02 00:28:14;;;;;;;35.33;19.40;;;4.20;99.90;;;;;;5011969;28;20174;-71
2022/12/02 00:30:40;;;;;;;33.67;17.97;;;4.20;99.90;;;;;;5011798;28;20899;-71
2022/12/02 00:33:06;;;;;;;33.90;18.77;;;4.20;99.90;;;;;;5011505;28;20554;-71
2022/12/02 00:35:32;;;;;;;40.20;19.77;;;4.20;99.90;;;;;;5011851;28;20175;-70
2022/12/02 00:37:57;;;;;;;34.63;18.03;;;4.30;99.90;;;;;;5011738;28;20425;-71
2022/12/02 00:40:23;;;;;;;33.43;18.70;;;4.20;99.90;;;;;;5011758;28;20202;-71
2022/12/02 00:42:48;;;;;;;34.43;19.30;;;4.20;99.90;;;;;;5011310;28;20329;-71
2022/12/02 00:47:59;;;;;;;39.27;20.10;;;4.20;99.90;;;;;;5012053;28;20213;-71
2022/12/02 00:50:25;;;;;;;39.60;19.43;;;4.30;99.90;;;;;;5011638;28;20411;-71
2022/12/02 00:52:50;;;;;;;36.80;19.80;;;4.30;99.90;;;;;;5011347;28;20212;-70
2022/12/02 00:55:16;;;;;;;38.07;19.13;;;4.30;99.90;;;;;;5011570;28;20411;-71
2022/12/02 00:57:42;;;;;;;35.40;19.03;;;4.20;99.90;;;;;;5011425;28;20232;-71
2022/12/02 01:00:09;;;;;;;35.37;19.37;;;4.30;99.90;;;;;;5011805;28;20452;-71
2022/12/02 01:02:35;;;;;;;32.67;19.00;;;4.20;99.90;;;;;;5010196;28;20186;-71
2022/12/02 01:05:00;;;;;;;37.20;19.17;;;4.20;99.90;;;;;;5010224;28;20467;-71
2022/12/02 01:07:26;;;;;;;33.70;17.60;;;4.20;99.90;;;;;;5011413;28;20168;-71
2022/12/02 01:09:51;;;;;;;33.40;19.63;;;4.20;99.90;;;;;;5011437;28;20332;-69
2022/12/02 01:12:17;;;;;;;47.33;20.60;;;4.20;99.90;;;;;;5011225;28;20268;-69
2022/12/02 01:14:42;;;;;;;38.93;20.63;;;4.20;99.90;;;;;;5011292;28;20711;-71
2022/12/02 01:17:08;;;;;;;37.20;18.70;;;4.20;99.90;;;;;;5011339;28;20186;-71
2022/12/02 01:19:33;;;;;;;38.13;20.97;;;4.20;99.90;;;;;;5011217;28;20644;-71
2022/12/02 01:21:59;;;;;;;38.67;20.70;;;4.20;99.90;;;;;;5011057;28;20183;-71
2022/12/02 01:24:25;;;;;;;34.97;19.07;;;4.20;99.90;;;;;;5011458;28;20265;-71
2022/12/02 01:26:50;;;;;;;35.17;18.80;;;4.20;99.90;;;;;;5011146;28;20212;-71
2022/12/02 01:29:16;;;;;;;39.73;20.00;;;4.20;99.90;;;;;;5011385;28;20182;-71
2022/12/02 01:31:41;;;;;;;33.83;18.10;;;4.20;99.90;;;;;;5010763;28;20225;-70
2022/12/02 01:34:07;;;;;;;37.03;19.10;;;4.20;99.90;;;;;;5011197;28;20234;-70
2022/12/02 01:36:32;;;;;;;33.30;17.13;;;4.20;99.90;;;;;;5011059;28;20178;-70
2022/12/02 01:38:58;;;;;;;35.53;19.20;;;4.20;99.90;;;;;;5011473;28;20180;-70
2022/12/02 01:41:23;;;;;;;40.10;19.97;;;4.20;99.90;;;;;;5012437;28;20309;-70
2022/12/02 01:43:49;;;;;;;34.77;17.37;;;4.20;99.90;;;;;;5014605;28;20190;-71
2022/12/02 01:46:15;;;;;;;32.30;18.20;;;4.20;99.90;;;;;;5014988;28;20548;-71
2022/12/02 01:48:41;;;;;;;43.67;19.00;;;4.20;99.90;;;;;;5014680;28;20174;-71
2022/12/02 01:51:06;;;;;;;38.47;18.63;;;4.20;99.90;;;;;;5014775;28;20195;-71
2022/12/02 01:53:33;;;;;;;37.83;19.13;;;4.20;99.90;;;;;;5014372;28;20182;-70
2022/12/02 01:55:59;;;;;;;40.30;20.43;;;4.30;99.90;;;;;;5014898;28;20178;-70
2022/12/02 01:58:28;;;;;;;38.30;19.70;;;4.30;99.90;;;;;;5014625;28;21221;-70
2022/12/02 03:31:33;;;;;;;37.57;19.93;;;4.20;99.90;;;;;;5693455;23;20506;-69
2022/12/02 03:33:58;;;;;;;35.20;19.37;;;4.20;99.90;;;;;;4974806;28;20419;-71
2022/12/02 03:36:25;;;;;;;38.63;19.83;;;4.20;99.90;;;;;;4992801;28;20910;-71
2022/12/02 03:38:51;;;;;;;40.90;20.90;;;4.20;99.90;;;;;;4992793;28;20183;-72
2022/12/02 03:41:17;;;;;;;29.13;16.97;;;4.20;99.90;;;;;;4989623;28;21180;-72
2022/12/02 03:43:42;;;;;;;39.53;19.50;;;4.20;99.90;;;;;;4974709;28;20195;-71
2022/12/02 03:46:08;;;;;;;36.67;19.40;;;4.20;99.90;;;;;;4973956;28;20766;-71
2022/12/02 03:48:35;;;;;;;36.13;18.57;;;4.20;99.90;;;;;;4973695;28;20654;-72
2022/12/02 03:51:01;;;;;;;32.50;18.33;;;4.20;99.90;;;;;;4973744;28;20458;-72
2022/12/02 03:53:28;;;;;;;35.10;18.67;;;4.20;99.90;;;;;;4973244;28;20658;-72
2022/12/02 03:55:54;;;;;;;38.77;19.73;;;4.10;99.90;;;;;;4973745;28;20202;-71
2022/12/02 03:58:19;;;;;;;36.07;18.50;;;4.20;99.90;;;;;;4973382;28;20448;-72
2022/12/02 04:00:45;;;;;;;40.20;20.67;;;4.20;99.90;;;;;;4973438;28;20465;-71
2022/12/02 04:03:10;;;;;;;36.27;19.73;;;4.20;99.90;;;;;;4973030;28;20175;-72
2022/12/02 04:05:36;;;;;;;35.93;20.10;;;4.10;99.90;;;;;;4973108;28;20215;-71
2022/12/02 04:08:01;;;;;;;33.70;18.17;;;4.10;99.90;;;;;;4973354;28;20631;-71
2022/12/02 04:10:27;;;;;;;37.00;19.00;;;4.10;99.90;;;;;;4973171;28;20185;-71
2022/12/02 04:12:52;;;;;;;36.23;19.20;;;4.10;99.90;;;;;;4972990;28;20191;-71
2022/12/02 04:15:18;;;;;;;40.33;19.03;;;4.10;99.90;;;;;;4972916;28;20181;-71
2022/12/02 04:17:43;;;;;;;34.70;19.37;;;4.10;99.90;;;;;;4973238;28;20235;-71
2022/12/02 04:20:10;;;;;;;33.33;18.77;;;4.10;99.90;;;;;;4973034;28;20214;-71
2022/12/02 04:22:35;;;;;;;41.00;19.90;;;4.10;99.90;;;;;;4972720;28;20199;-71
2022/12/02 04:25:03;;;;;;;38.10;18.97;;;4.10;99.90;;;;;;4973107;28;20982;-71
2022/12/02 04:27:28;;;;;;;37.77;20.50;;;4.10;99.90;;;;;;4972851;28;20652;-72
2022/12/02 04:29:54;;;;;;;37.33;20.30;;;4.10;99.90;;;;;;4972984;28;20422;-72
2022/12/02 04:32:19;;;;;;;33.90;17.27;;;4.10;99.90;;;;;;4972390;28;20208;-71
2022/12/02 04:34:45;;;;;;;42.43;20.70;;;4.10;99.90;;;;;;4972882;28;20194;-72
2022/12/02 04:37:10;;;;;;;34.90;19.67;;;4.10;99.90;;;;;;4972830;28;20173;-72
2022/12/02 04:39:36;;;;;;;34.90;18.70;;;4.10;99.90;;;;;;4972890;28;20238;-72
2022/12/02 04:42:01;;;;;;;43.57;20.67;;;4.10;99.90;;;;;;4972491;28;20300;-72
2022/12/02 04:44:27;;;;;;;39.67;20.63;;;4.10;99.90;;;;;;4972199;28;20181;-71
2022/12/02 04:46:52;;;;;;;35.30;19.70;;;4.10;99.90;;;;;;4972258;28;20169;-71
2022/12/02 04:49:18;;;;;;;38.53;20.67;;;4.10;99.90;;;;;;4972622;28;20184;-71
2022/12/02 04:51:43;;;;;;;36.47;20.00;;;4.10;99.90;;;;;;4972560;28;20666;-71
2022/12/02 04:54:09;;;;;;;40.90;18.10;;;4.10;99.90;;;;;;4972622;28;20180;-71
2022/12/02 04:56:35;;;;;;;39.97;20.67;;;4.10;99.90;;;;;;4972823;28;20691;-71
2022/12/02 04:59:01;;;;;;;42.07;19.90;;;4.20;99.90;;;;;;4972565;28;20179;-71
2022/12/02 05:01:26;;;;;;;45.23;22.30;;;4.20;99.90;;;;;;4972375;28;20655;-72
2022/12/02 05:03:52;;;;;;;40.83;20.83;;;4.20;99.90;;;;;;4972322;28;20229;-71
2022/12/02 05:06:17;;;;;;;38.23;20.37;;;4.20;99.90;;;;;;4972522;28;20180;-71
2022/12/02 05:08:43;;;;;;;43.33;20.03;;;4.20;99.90;;;;;;4972445;28;20652;-71
2022/12/02 05:11:08;;;;;;;41.07;20.93;;;4.20;99.90;;;;;;4972475;28;20254;-71
2022/12/02 05:13:34;;;;;;;39.77;20.70;;;4.20;99.90;;;;;;4972126;28;20189;-71
2022/12/02 05:15:59;;;;;;;40.10;19.23;;;4.20;99.90;;;;;;4973147;28;20270;-71
2022/12/02 05:18:25;;;;;;;45.93;21.93;;;4.20;99.90;;;;;;4976168;28;20176;-72
2022/12/02 05:20:51;;;;;;;36.83;19.67;;;4.20;99.90;;;;;;4976434;28;20633;-72
2022/12/02 05:23:16;;;;;;;40.37;20.50;;;4.20;99.90;;;;;;4975902;28;20243;-72
2022/12/02 05:25:42;;;;;;;43.53;22.07;;;4.20;99.90;;;;;;4976372;28;20190;-71
2022/12/02 05:28:07;;;;;;;40.20;19.90;;;4.20;99.90;;;;;;4976253;28;20181;-71
2022/12/02 05:30:33;;;;;;;40.17;21.20;;;4.20;99.90;;;;;;4976080;28;20182;-71
2022/12/02 05:32:58;;;;;;;36.60;20.67;;;4.20;99.90;;;;;;4975964;28;20589;-71
2022/12/02 05:35:24;;;;;;;39.63;19.13;;;4.20;99.90;;;;;;4976042;28;20180;-71
2022/12/02 05:37:49;;;;;;;36.10;19.50;;;4.20;99.90;;;;;;4976132;28;20184;-71
2022/12/02 05:40:15;;;;;;;34.50;18.63;;;4.20;99.90;;;;;;4975820;28;20613;-71
2022/12/02 05:42:41;;;;;;;44.53;21.83;;;4.20;99.90;;;;;;4975723;28;20190;-71
2022/12/02 05:45:15;;;;;;;41.97;20.83;;;4.20;99.90;;;;;;4975929;28;20211;-71
2022/12/02 05:47:41;;;;;;;37.97;21.00;;;4.20;99.90;;;;;;4975841;28;20511;-71
2022/12/02 05:50:12;;;;;;;38.73;20.07;;;4.20;99.90;;;;;;4958454;28;20441;-71
2022/12/02 05:52:37;;;;;;;45.30;25.30;;;4.20;99.90;;;;;;4975785;28;20510;-71
2022/12/02 05:55:11;;;;;;;39.93;20.20;;;4.20;99.90;;;;;;4975880;28;20423;-72
2022/12/02 05:57:36;;;;;;;35.07;20.27;;;4.20;99.90;;;;;;4975611;28;20200;-72
2022/12/02 06:00:08;;;;;;;49.23;22.87;;;4.20;99.90;;;;;;4975677;28;20489;-71
2022/12/02 06:02:39;;;;;;;47.27;20.83;;;4.10;99.90;;;;;;4975157;28;20262;-72
2022/12/02 06:05:15;;;;;;;36.00;18.27;;;4.10;99.90;;;;;;4975743;28;20406;-72
2022/12/02 06:07:40;;;;;;;38.87;19.93;;;4.10;99.90;;;;;;4975513;28;20421;-72
2022/12/02 06:10:20;;;;;;;36.93;20.47;;;4.10;99.90;;;;;;4975543;28;20414;-72
2022/12/02 06:12:46;;;;;;;47.40;20.00;;;4.10;99.90;;;;;;4975016;28;20309;-72
2022/12/02 06:15:14;;;;;;;39.60;18.60;;;4.10;99.90;;;;;;4975372;28;20504;-72
2022/12/02 06:17:40;;;;;;;39.70;18.57;;;4.10;99.90;;;;;;4975341;28;20247;-72
2022/12/02 06:20:16;;;;;;;42.47;18.27;;;4.10;99.90;;;;;;4975562;28;20978;-71
2022/12/02 06:22:41;;;;;;;40.27;19.83;;;4.10;99.90;;;;;;4974979;28;20443;-72
2022/12/02 06:25:25;;;;;;;40.03;18.93;;;4.10;99.90;;;;;;4975460;28;20412;-72
2022/12/02 06:27:54;;;;;;;34.90;20.20;;;4.10;99.90;;;;;;4975024;28;20546;-72
2022/12/02 06:30:20;;;;;;;36.77;19.20;;;4.10;99.90;;;;;;4975038;28;20413;-72
2022/12/02 06:32:53;;;;;;;38.80;22.10;;;4.10;99.90;;;;;;4974850;28;20454;-72
2022/12/02 06:35:23;;;;;;;42.20;20.07;;;4.20;99.90;;;;;;4975045;28;20171;-71
2022/12/02 06:37:50;;;;;;;40.80;19.80;;;4.20;99.90;;;;;;4975040;28;20473;-72
2022/12/02 06:40:35;;;;;;;42.17;23.13;;;4.20;99.90;;;;;;4974779;28;20455;-71
2022/12/02 06:43:10;;;;;;;45.87;20.90;;;4.20;99.90;;;;;;4974743;28;20450;-71
2022/12/02 06:45:36;;;;;;;35.93;19.30;;;4.20;99.90;;;;;;4974728;28;20415;-70
2022/12/02 06:48:25;;;;;;;34.07;20.07;;;4.20;99.90;;;;;;4974836;28;20489;-70
2022/12/02 06:50:51;;;;;;;51.70;21.30;;;4.20;99.90;;;;;;4974599;28;20195;-70
2022/12/02 06:53:24;;;;;;;41.13;19.13;;;4.20;99.90;;;;;;4974331;28;20416;-71
2022/12/02 06:55:55;;;;;;;43.07;20.40;;;4.20;99.90;;;;;;4974601;28;20739;-70
2022/12/02 06:59:00;;;;;;;38.57;19.27;;;4.20;99.90;;;;;;4974522;28;20394;-71
2022/12/02 07:01:37;;;;;;;47.67;19.77;;;4.20;99.90;;;;;;4974279;28;20508;-70
2022/12/02 07:04:09;;;;;;;37.93;18.90;;;4.20;99.90;;;;;;4973292;28;20859;-71
2022/12/02 07:06:37;;;;;;;40.17;18.43;;;4.20;99.90;;;;;;4974270;28;20423;-70
2022/12/02 07:09:11;;;;;;;40.67;19.50;;;4.20;99.90;;;;;;4974357;28;20407;-70
2022/12/02 07:11:49;;;;;;;44.27;20.37;;;4.20;99.90;;;;;;4974227;28;20436;-70
2022/12/02 07:14:20;;;;;;;41.63;19.57;;;4.20;99.90;;;;;;4973923;28;20432;-71
2022/12/02 07:16:47;;;;;;;43.47;20.37;;;4.20;99.90;;;;;;4974415;28;20429;-71
2022/12/02 07:19:17;;;;;;;44.40;20.43;;;4.30;99.90;;;;;;4974152;28;20419;-71
2022/12/02 07:21:43;;;;;;;44.90;19.33;;;4.20;99.90;;;;;;4974065;28;20465;-71
2022/12/02 07:24:17;;;;;;;45.27;20.30;;;4.20;99.90;;;;;;4973901;28;20469;-71
2022/12/02 07:26:45;;;;;;;44.10;21.80;;;4.20;99.90;;;;;;4974144;28;20214;-69
2022/12/02 07:29:22;;;;;;;52.43;21.63;;;4.20;99.90;;;;;;4973982;28;20417;-71
2022/12/02 07:31:48;;;;;;;37.03;20.43;;;4.30;99.90;;;;;;4974091;28;20943;-71
2022/12/02 07:34:13;;;;;;;47.37;21.70;;;4.20;99.90;;;;;;4964973;28;20425;-71
2022/12/02 07:36:39;;;;;;;40.60;20.30;;;4.20;99.90;;;;;;4955446;28;20188;-71
2022/12/02 07:39:05;;;;;;;43.77;20.53;;;4.20;99.90;;;;;;4953835;28;20513;-71
2022/12/02 07:41:31;;;;;;;40.60;19.07;;;4.30;99.90;;;;;;4954291;28;20211;-71
2022/12/02 07:43:56;;;;;;;42.97;21.20;;;4.20;99.90;;;;;;4936661;29;20944;-71
2022/12/02 07:46:22;;;;;;;50.23;20.33;;;4.30;99.90;;;;;;4954430;29;20262;-71
2022/12/02 07:48:47;;;;;;;42.90;21.00;;;4.30;99.90;;;;;;4954484;29;20208;-71
2022/12/02 07:51:13;;;;;;;45.70;21.20;;;4.30;99.90;;;;;;4954396;28;20572;-70
2022/12/02 07:53:38;;;;;;;47.67;22.10;;;4.20;99.90;;;;;;4953944;29;20515;-70
2022/12/02 07:56:04;;;;;;;48.53;22.63;;;4.30;99.90;;;;;;4954521;29;20729;-71
2022/12/02 07:58:30;;;;;;;45.77;22.07;;;4.20;99.90;;;;;;4954088;29;20634;-71
2022/12/02 08:00:55;;;;;;;49.47;21.63;;;4.20;99.90;;;;;;4954162;28;20212;-71
2022/12/02 08:03:21;;;;;;;40.17;20.33;;;4.30;99.90;;;;;;4953943;29;20187;-70
2022/12/02 08:05:46;;;;;;;45.17;22.60;;;4.20;99.90;;;;;;4954303;29;20182;-70
2022/12/02 08:08:12;;;;;;;51.23;24.27;;;4.30;99.90;;;;;;4954022;29;20263;-71
2022/12/02 08:10:37;;;;;;;48.40;23.63;;;4.30;99.90;;;;;;4953997;28;20523;-70
2022/12/02 08:13:03;;;;;;;42.53;20.63;;;4.30;99.90;;;;;;4953842;29;20180;-71
2022/12/02 08:15:28;;;;;;;48.10;21.40;;;4.30;99.90;;;;;;4953889;29;20731;-71
2022/12/02 08:17:55;;;;;;;51.17;21.40;;;4.20;99.90;;;;;;4954000;29;20183;-71
2022/12/02 08:20:21;;;;;;;43.30;21.47;;;4.30;99.90;;;;;;4953727;29;20286;-70
2022/12/02 08:22:46;;;;;;;38.30;19.90;;;4.30;99.90;;;;;;4953569;28;21128;-70
2022/12/02 08:25:12;;;;;;;47.77;22.00;;;4.20;99.90;;;;;;4953891;29;20180;-70
2022/12/02 08:27:39;;;;;;;47.07;22.07;;;4.30;99.90;;;;;;4953672;29;20183;-70
2022/12/02 08:30:07;;;;;;;43.70;21.77;;;4.20;99.90;;;;;;4952770;28;20296;-70
2022/12/02 08:32:33;;;;;;;60.33;22.97;;;4.20;99.90;;;;;;4952217;28;20525;-70
2022/12/02 08:34:59;;;;;;;52.13;22.47;;;4.30;99.90;;;;;;4953713;29;20984;-71
2022/12/02 08:37:24;;;;;;;46.97;21.67;;;4.20;99.90;;;;;;4953179;29;20778;-70
2022/12/02 08:39:50;;;;;;;56.80;23.47;;;4.20;99.90;;;;;;4952591;28;20188;-70
2022/12/02 08:42:15;;;;;;;43.97;22.57;;;4.20;99.90;;;;;;4953232;28;20193;-71
2022/12/02 08:44:41;;;;;;;48.47;22.60;;;4.20;99.90;;;;;;4953285;29;20180;-70
2022/12/02 08:47:06;;;;;;;43.00;22.00;;;4.20;99.90;;;;;;4952949;29;20259;-70
2022/12/02 08:49:32;;;;;;;45.20;22.20;;;4.30;99.90;;;;;;4964072;28;20806;-70
2022/12/02 08:51:57;;;;;;;38.17;19.97;;;4.20;99.90;;;;;;4971813;28;20207;-70
2022/12/02 08:54:23;;;;;;;42.03;18.53;;;4.20;99.90;;;;;;4972198;28;20179;-70
2022/12/02 08:56:49;;;;;;;36.93;18.13;;;4.30;99.90;;;;;;4972719;28;20182;-70
2022/12/02 08:59:14;;;;;;;31.53;17.57;;;4.20;99.90;;;;;;4970841;28;20183;-70
2022/12/02 09:01:40;;;;;;;40.07;18.93;;;4.30;99.90;;;;;;4972030;28;20213;-69
2022/12/02 09:04:05;;;;;;;42.17;20.23;;;4.30;99.90;;;;;;4972400;28;20229;-70
2022/12/02 09:06:31;;;;;;;38.13;17.53;;;4.30;99.90;;;;;;4972172;28;20561;-70
2022/12/02 09:08:56;;;;;;;34.90;16.57;;;4.40;99.90;;;;;;4971847;28;20178;-70
2022/12/02 09:11:22;;;;;;;38.23;17.87;;;4.40;99.90;;;;;;4971771;28;20208;-70
2022/12/02 09:13:47;;;;;;;32.83;16.10;;;4.40;99.90;;;;;;4972301;28;20186;-71
2022/12/02 09:16:13;;;;;;;35.10;16.33;;;4.40;99.90;;;;;;4972426;28;20260;-70
2022/12/02 09:18:38;;;;;;;33.43;17.40;;;4.40;99.90;;;;;;4972124;28;20321;-70
2022/12/02 09:21:04;;;;;;;30.87;16.83;;;4.40;99.90;;;;;;4972188;28;20216;-70
2022/12/02 09:23:30;;;;;;;34.40;16.30;;;4.40;99.90;;;;;;4972011;28;20606;-71
2022/12/02 09:25:56;;;;;;;30.90;16.80;;;4.50;99.90;;;;;;4971023;28;20219;-70
2022/12/02 09:28:22;;;;;;;37.20;17.33;;;4.40;99.90;;;;;;4952782;29;20182;-70
2022/12/02 09:30:49;;;;;;;28.20;14.77;;;4.40;99.90;;;;;;4953543;28;20213;-70
2022/12/02 09:33:14;;;;;;;30.40;14.73;;;4.40;99.90;;;;;;4952566;29;20415;-70
2022/12/02 09:35:40;;;;;;;26.10;15.80;;;4.40;99.90;;;;;;4952847;29;20518;-71
2022/12/02 09:38:06;;;;;;;22.33;13.40;;;4.40;99.90;;;;;;4952039;29;20236;-70
2022/12/02 09:40:33;;;;;;;23.73;13.37;;;4.40;99.90;;;;;;4951698;29;20217;-70
2022/12/02 09:43:00;;;;;;;21.80;12.93;;;4.40;99.90;;;;;;4952537;28;20285;-70
2022/12/02 09:45:26;;;;;;;26.33;14.95;;;4.40;99.90;;;;;;4952654;29;20420;-71
2022/12/02 09:47:52;;;;;;;30.07;15.27;;;4.40;99.90;;;;;;4952514;29;20993;-71
2022/12/02 09:50:18;;;;;;;23.10;14.13;;;4.40;99.90;;;;;;4952699;29;20907;-70
2022/12/02 09:52:45;;;;;;;22.77;13.13;;;4.40;99.90;;;;;;4952643;28;20418;-70
2022/12/02 09:55:13;;;;;;;31.53;14.57;;;4.40;99.90;;;;;;4952739;29;20181;-67
2022/12/02 09:57:39;;;;;;;28.03;14.60;;;4.40;99.90;;;;;;4956605;28;20398;-68
2022/12/02 10:00:11;;;;;;;27.37;15.90;;;4.50;99.90;;;;;;4971912;28;20505;-68
2022/12/02 10:02:43;;;;;;;33.63;15.43;;;4.50;99.90;;;;;;4973621;28;20213;-67
2022/12/02 10:05:19;;;;;;;23.90;13.70;;;4.40;99.90;;;;;;4975765;28;20419;-68
2022/12/02 10:07:46;;;;;;;25.33;12.50;;;4.40;99.90;;;;;;4975671;28;20414;-69
2022/12/02 10:10:15;;;;;;;27.73;14.30;;;4.40;99.90;;;;;;4975610;28;20439;-69
2022/12/02 10:12:40;;;;;;;19.93;12.03;;;4.40;99.90;;;;;;4975118;28;20436;-68
2022/12/02 10:15:09;;;;;;;22.23;12.20;;;4.40;99.90;;;;;;4975722;28;20426;-70
2022/12/02 10:17:34;;;;;;;21.03;12.07;;;4.40;99.90;;;;;;4975389;28;20195;-69
2022/12/02 10:20:00;;;;;;;24.87;12.87;;;4.50;99.90;;;;;;4975469;28;20429;-69
2022/12/02 10:22:25;;;;;;;21.20;11.80;;;4.50;99.90;;;;;;4975159;28;20211;-69
2022/12/02 10:24:51;;;;;;;21.00;11.40;;;4.50;99.90;;;;;;4975176;28;20209;-69
2022/12/02 10:27:29;;;;;;;17.97;10.23;;;4.60;99.90;;;;;;4975210;28;20187;-69
2022/12/02 10:30:17;;;;;;;18.30;11.07;;;4.50;99.90;;;;;;4975411;28;20168;-69
2022/12/02 10:33:03;;;;;;;23.03;10.87;;;4.50;99.90;;;;;;4975237;28;20463;-69
2022/12/02 10:35:43;;;;;;;15.70;9.47;;;4.50;99.90;;;;;;4974950;28;20470;-69
2022/12/02 10:38:29;;;;;;;15.70;10.03;;;4.50;99.90;;;;;;4974896;28;20791;-69
2022/12/02 10:41:09;;;;;;;15.90;10.03;;;4.50;99.90;;;;;;4964584;28;20483;-69
2022/12/02 10:43:35;;;;;;;13.70;9.20;;;4.50;99.90;;;;;;4974563;28;20470;-69
2022/12/02 10:46:00;;;;;;;18.80;10.43;;;4.50;99.90;;;;;;4975067;28;20420;-69
2022/12/02 10:48:26;;;;;;;13.87;9.10;;;4.50;99.90;;;;;;4974622;28;20218;-68
2022/12/02 10:50:51;;;;;;;16.30;8.90;;;4.50;99.90;;;;;;4974743;28;20194;-69
2022/12/02 10:53:18;;;;;;;15.00;8.40;;;4.50;99.90;;;;;;4974459;28;20561;-73
2022/12/02 10:55:45;;;;;;;12.73;8.70;;;4.50;99.90;;;;;;4974708;28;20176;-69
2022/12/02 10:58:26;;;;;;;16.00;9.20;;;4.40;99.90;;;;;;4956059;28;20425;-69
2022/12/02 11:00:51;;;;;;;14.33;9.33;;;4.40;99.90;;;;;;4956412;28;20446;-68
2022/12/02 11:03:19;;;;;;;15.30;9.17;;;4.40;99.90;;;;;;4971882;28;20859;-67
2022/12/02 11:05:45;;;;;;;13.93;8.90;;;4.40;99.90;;;;;;4974532;28;20172;-68
2022/12/02 11:08:24;;;;;;;14.37;8.50;;;4.40;99.90;;;;;;4974410;28;20393;-68
2022/12/02 11:11:12;;;;;;;18.50;9.77;;;4.40;99.90;;;;;;4974100;28;20440;-68
2022/12/02 11:14:02;;;;;;;15.97;9.03;;;4.40;99.90;;;;;;4972297;28;20463;-68
2022/12/02 11:16:27;;;;;;;14.17;8.53;;;4.40;99.90;;;;;;4973890;28;20535;-69
2022/12/02 11:19:09;;;;;;;15.20;8.20;;;4.30;99.90;;;;;;4974243;28;20492;-68
2022/12/02 11:21:38;;;;;;;14.60;8.47;;;4.30;99.90;;;;;;4973847;28;20225;-69
2022/12/02 11:24:22;;;;;;;12.70;8.00;;;4.30;99.90;;;;;;4956752;28;20844;-69
2022/12/02 11:27:03;;;;;;;9.67;6.90;;;4.40;99.90;;;;;;4974090;28;20946;-69
2022/12/02 11:29:58;;;;;;;15.93;8.90;;;4.30;99.90;;;;;;4973793;28;20425;-69
2022/12/02 11:32:24;;;;;;;13.13;8.13;;;4.30;99.90;;;;;;4973419;28;20552;-69
2022/12/02 11:34:52;;;;;;;16.40;9.60;;;4.20;99.90;;;;;;4973634;28;20518;-69
2022/12/02 11:37:26;;;;;;;19.30;9.40;;;4.30;99.90;;;;;;4973895;28;20227;-69
2022/12/02 11:39:54;;;;;;;14.07;9.13;;;4.30;99.90;;;;;;4973739;28;20446;-69
2022/12/02 11:42:25;;;;;;;15.73;9.40;;;4.30;99.90;;;;;;4973817;28;20450;-68
2022/12/02 11:44:51;;;;;;;13.73;8.47;;;4.30;99.90;;;;;;4972644;28;20385;-69
2022/12/02 11:47:29;;;;;;;15.10;9.07;;;4.40;99.90;;;;;;4973719;28;20378;-69
2022/12/02 11:50:11;;;;;;;12.87;7.77;;;4.40;99.90;;;;;;4973956;28;20220;-69
2022/12/02 11:52:39;;;;;;;19.33;8.43;;;4.40;99.90;;;;;;4974321;28;20528;-68
2022/12/02 11:55:22;;;;;;;14.80;9.23;;;4.40;99.90;;;;;;4974775;28;20451;-69
2022/12/02 11:57:49;;;;;;;14.97;8.80;;;4.40;99.90;;;;;;4974861;28;20396;-68
2022/12/02 12:00:31;;;;;;;16.13;9.70;;;4.40;99.90;;;;;;4973502;28;21003;-69
2022/12/02 12:03:11;;;;;;;12.50;8.30;;;4.40;99.90;;;;;;4973489;28;20439;-69
2022/12/02 12:05:37;;;;;;;11.53;7.83;;;4.40;99.90;;;;;;4973857;28;20410;-69
2022/12/02 12:08:03;;;;;;;13.87;7.30;;;4.40;99.90;;;;;;4973068;28;20446;-68
2022/12/02 12:10:35;;;;;;;11.13;7.37;;;4.40;99.90;;;;;;4973839;28;20420;-69
2022/12/02 12:13:22;;;;;;;14.67;7.17;;;4.30;99.90;;;;;;4973193;28;20210;-68
2022/12/02 12:15:54;;;;;;;11.10;7.27;;;4.30;99.90;;;;;;4973487;28;20408;-69
2022/12/02 12:18:46;;;;;;;12.47;7.00;;;4.30;99.90;;;;;;4973195;28;20450;-71
2022/12/02 12:21:35;;;;;;;10.07;7.20;;;4.30;99.90;;;;;;4973286;28;20511;-69
2022/12/02 12:24:16;;;;;;;9.63;6.40;;;4.30;99.90;;;;;;4962993;28;20500;-69
2022/12/02 12:26:50;;;;;;;14.60;8.03;;;4.30;99.90;;;;;;4973112;28;20809;-69
2022/12/02 12:29:17;;;;;;;11.40;7.13;;;4.30;99.90;;;;;;4972977;28;20412;-69
2022/12/02 12:31:43;;;;;;;9.23;6.13;;;4.30;99.90;;;;;;4972916;28;20459;-69
2022/12/02 12:34:10;;;;;;;8.17;6.30;;;4.30;99.90;;;;;;4972902;28;20963;-69
2022/12/02 12:36:36;;;;;;;11.83;7.00;;;4.30;99.90;;;;;;4973023;28;20412;-69
2022/12/02 12:39:03;;;;;;;8.67;6.80;;;4.30;99.90;;;;;;4972844;28;20444;-68
2022/12/02 12:41:29;;;;;;;9.80;6.77;;;4.30;99.90;;;;;;4972661;28;20489;-69
2022/12/02 12:43:54;;;;;;;7.77;5.57;;;4.30;99.90;;;;;;4972676;28;20423;-69
2022/12/02 12:46:20;;;;;;;7.47;6.03;;;4.30;99.90;;;;;;4972765;28;20185;-69
2022/12/02 12:48:45;;;;;;;7.80;5.60;;;4.30;99.90;;;;;;4972851;28;20599;-69
2022/12/02 12:51:11;;;;;;;6.93;5.43;;;4.40;99.90;;;;;;4972914;28;20278;-70
2022/12/02 12:53:36;;;;;;;8.00;6.40;;;4.40;99.90;;;;;;4972357;28;20526;-69
2022/12/02 12:56:03;;;;;;;7.13;5.93;;;4.30;99.90;;;;;;4973003;28;20226;-68
2022/12/02 12:58:28;;;;;;;6.80;5.27;;;4.30;99.90;;;;;;4972957;28;20238;-67
2022/12/02 13:00:54;;;;;;;12.60;6.87;;;4.30;99.90;;;;;;4972525;28;20933;-69
2022/12/02 13:03:20;;;;;;;9.30;5.27;;;4.30;99.90;;;;;;4972217;28;20250;-68
2022/12/02 13:05:46;;;;;;;7.30;6.23;;;4.40;99.90;;;;;;4972471;28;20188;-69
2022/12/02 13:08:11;;;;;;;6.27;4.90;;;4.40;99.90;;;;;;4972218;28;20482;-69
2022/12/02 13:10:37;;;;;;;5.10;4.60;;;4.30;99.90;;;;;;4972325;28;20176;-68
2022/12/02 13:13:03;;;;;;;9.20;5.30;;;4.30;99.90;;;;;;4972355;28;20565;-69
2022/12/02 13:15:28;;;;;;;7.30;5.60;;;4.30;99.90;;;;;;4972351;28;20222;-69
2022/12/02 13:17:54;;;;;;;6.00;4.53;;;4.30;99.90;;;;;;4972619;28;20911;-69
2022/12/02 13:20:19;;;;;;;9.23;6.27;;;4.30;99.90;;;;;;4972861;28;20213;-69
2022/12/02 13:22:45;;;;;;;8.87;5.60;;;4.30;99.90;;;;;;4972372;28;20560;-69
2022/12/02 13:25:12;;;;;;;9.27;6.23;;;4.30;99.90;;;;;;4972270;28;20191;-69
2022/12/02 13:27:38;;;;;;;6.83;5.93;;;4.30;99.90;;;;;;4972366;28;20176;-69
2022/12/02 13:30:12;;;;;;;7.20;5.73;;;4.30;99.90;;;;;;4968785;28;20423;-69
2022/12/02 13:32:38;;;;;;;6.97;5.17;;;4.40;99.90;;;;;;4962836;28;20474;-69
2022/12/02 13:35:04;;;;;;;8.87;6.43;;;4.30;99.90;;;;;;4970877;28;20468;-69
2022/12/02 13:37:30;;;;;;;6.07;4.80;;;4.30;99.90;;;;;;4972978;28;20693;-69
2022/12/02 13:39:55;;;;;;;5.97;5.33;;;4.40;99.90;;;;;;4975914;28;20458;-70
2022/12/02 13:42:21;;;;;;;6.70;5.53;;;4.30;99.90;;;;;;4974709;28;20229;-69
2022/12/02 13:44:46;;;;;;;9.70;6.20;;;4.30;99.90;;;;;;4974887;28;20261;-69
2022/12/02 13:47:12;;;;;;;5.63;4.77;;;4.30;99.90;;;;;;4974787;28;20595;-69
2022/12/02 13:49:37;;;;;;;5.53;4.97;;;4.30;99.90;;;;;;4975109;28;20217;-69
2022/12/02 13:52:03;;;;;;;7.00;5.40;;;4.20;99.90;;;;;;4974741;28;20228;-69
2022/12/02 13:54:28;;;;;;;8.47;5.83;;;4.20;99.90;;;;;;4974918;28;20894;-69
2022/12/02 13:56:54;;;;;;;7.37;5.60;;;4.20;99.90;;;;;;4974688;28;20295;-69
2022/12/02 13:59:20;;;;;;;9.73;5.33;;;4.20;99.90;;;;;;4974752;28;20239;-69
2022/12/02 14:01:45;;;;;;;6.80;5.57;;;4.10;99.90;;;;;;4974432;28;20738;-69
2022/12/02 14:04:11;;;;;;;6.80;5.33;;;4.10;99.90;;;;;;4974477;28;20206;-69
2022/12/02 14:06:36;;;;;;;7.37;5.70;;;4.00;99.90;;;;;;4974695;28;20775;-69
2022/12/02 14:09:02;;;;;;;7.30;5.70;;;4.10;99.90;;;;;;4974500;28;20274;-69
2022/12/02 14:11:28;;;;;;;7.20;5.30;;;4.10;99.90;;;;;;4974269;28;20207;-69
2022/12/02 14:13:54;;;;;;;5.70;4.50;;;4.10;99.90;;;;;;4974330;28;20797;-68
2022/12/02 14:16:20;;;;;;;6.87;5.83;;;4.00;99.90;;;;;;4974139;28;20268;-68
2022/12/02 14:18:46;;;;;;;8.77;6.60;;;4.10;99.90;;;;;;4974438;28;20738;-68